sensor_id;sensor_type;location;lat;lon;timestamp;P1;durP1;ratioP1;P2;durP2;ratioP2
53753;SDS011;39667;52.274;20.964;2023-02-28T00:02:50;37.80;;;21.90;;
53753;SDS011;39667;52.274;20.964;2023-02-28T00:07:01;42.10;;;22.90;;
53753;SDS011;39667;52.274;20.964;2023-02-28T00:10:18;36.40;;;21.40;;
53753;SDS011;39667;52.274;20.964;2023-02-28T00:13:52;36.80;;;21.40;;
53753;SDS011;39667;52.274;20.964;2023-02-28T00:17:41;39.30;;;21.60;;
53753;SDS011;39667;52.274;20.964;2023-02-28T00:24:17;39.00;;;22.90;;
53753;SDS011;39667;52.274;20.964;2023-02-28T00:27:38;37.00;;;22.70;;
53753;SDS011;39667;52.274;20.964;2023-02-28T00:31:07;31.60;;;20.60;;
53753;SDS011;39667;52.274;20.964;2023-02-28T00:34:38;35.60;;;20.80;;
53753;SDS011;39667;52.274;20.964;2023-02-28T00:37:36;33.60;;;21.40;;
53753;SDS011;39667;52.274;20.964;2023-02-28T00:41:11;33.20;;;20.00;;
53753;SDS011;39667;52.274;20.964;2023-02-28T00:44:35;35.20;;;21.40;;
53753;SDS011;39667;52.274;20.964;2023-02-28T00:48:20;30.30;;;19.90;;
53753;SDS011;39667;52.274;20.964;2023-02-28T00:52:00;30.60;;;19.80;;
53753;SDS011;39667;52.274;20.964;2023-02-28T00:54:30;35.20;;;20.50;;
53753;SDS011;39667;52.274;20.964;2023-02-28T00:57:52;33.50;;;19.40;;
53753;SDS011;39667;52.274;20.964;2023-02-28T01:01:23;28.20;;;19.90;;
53753;SDS011;39667;52.274;20.964;2023-02-28T01:04:40;27.30;;;16.70;;
53753;SDS011;39667;52.274;20.964;2023-02-28T01:08:33;27.10;;;17.90;;
53753;SDS011;39667;52.274;20.964;2023-02-28T01:12:45;28.00;;;17.10;;
53753;SDS011;39667;52.274;20.964;2023-02-28T01:16:14;32.70;;;19.30;;
53753;SDS011;39667;52.274;20.964;2023-02-28T01:19:15;28.70;;;17.70;;
53753;SDS011;39667;52.274;20.964;2023-02-28T01:22:34;29.50;;;18.00;;
53753;SDS011;39667;52.274;20.964;2023-02-28T01:26:38;30.00;;;17.50;;
53753;SDS011;39667;52.274;20.964;2023-02-28T01:30:10;30.30;;;17.90;;
53753;SDS011;39667;52.274;20.964;2023-02-28T01:32:40;24.00;;;14.40;;
53753;SDS011;39667;52.274;20.964;2023-02-28T01:35:12;21.80;;;14.20;;
53753;SDS011;39667;52.274;20.964;2023-02-28T01:37:41;24.40;;;14.80;;
53753;SDS011;39667;52.274;20.964;2023-02-28T01:41:07;29.40;;;17.30;;
53753;SDS011;39667;52.274;20.964;2023-02-28T01:44:58;30.00;;;18.20;;
53753;SDS011;39667;52.274;20.964;2023-02-28T01:48:32;24.00;;;14.70;;
53753;SDS011;39667;52.274;20.964;2023-02-28T01:51:44;29.70;;;16.90;;
53753;SDS011;39667;52.274;20.964;2023-02-28T01:54:33;30.70;;;18.30;;
53753;SDS011;39667;52.274;20.964;2023-02-28T01:57:45;28.80;;;18.10;;
53753;SDS011;39667;52.274;20.964;2023-02-28T02:00:24;28.10;;;17.90;;
53753;SDS011;39667;52.274;20.964;2023-02-28T02:03:33;26.90;;;15.50;;
53753;SDS011;39667;52.274;20.964;2023-02-28T02:06:39;30.90;;;18.80;;
53753;SDS011;39667;52.274;20.964;2023-02-28T02:09:32;27.60;;;18.70;;
53753;SDS011;39667;52.274;20.964;2023-02-28T08:45:08;9.60;;;7.20;;
53753;SDS011;39667;52.274;20.964;2023-02-28T08:47:45;10.60;;;7.60;;
53753;SDS011;39667;52.274;20.964;2023-02-28T08:50:13;10.70;;;7.90;;
53753;SDS011;39667;52.274;20.964;2023-02-28T08:52:42;11.10;;;7.30;;
53753;SDS011;39667;52.274;20.964;2023-02-28T08:55:11;8.00;;;6.80;;
53753;SDS011;39667;52.274;20.964;2023-02-28T08:58:10;12.90;;;7.80;;
53753;SDS011;39667;52.274;20.964;2023-02-28T09:00:41;12.40;;;7.90;;
53753;SDS011;39667;52.274;20.964;2023-02-28T09:03:12;10.00;;;7.80;;
53753;SDS011;39667;52.274;20.964;2023-02-28T09:06:04;12.80;;;7.80;;
53753;SDS011;39667;52.274;20.964;2023-02-28T09:08:33;9.50;;;7.50;;
53753;SDS011;39667;52.274;20.964;2023-02-28T09:11:02;7.50;;;6.60;;
53753;SDS011;39667;52.274;20.964;2023-02-28T09:13:38;8.60;;;5.90;;
53753;SDS011;39667;52.274;20.964;2023-02-28T09:16:15;11.40;;;7.00;;
53753;SDS011;39667;52.274;20.964;2023-02-28T09:25:05;8.20;;;7.10;;
53753;SDS011;39667;52.274;20.964;2023-02-28T09:27:37;10.60;;;7.00;;
53753;SDS011;39667;52.274;20.964;2023-02-28T09:30:18;9.30;;;7.00;;
53753;SDS011;39667;52.274;20.964;2023-02-28T09:32:48;7.80;;;6.50;;
53753;SDS011;39667;52.274;20.964;2023-02-28T09:35:24;7.20;;;6.50;;
53753;SDS011;39667;52.274;20.964;2023-02-28T09:38:21;9.20;;;6.50;;
53753;SDS011;39667;52.274;20.964;2023-02-28T09:41:01;9.00;;;6.90;;
53753;SDS011;39667;52.274;20.964;2023-02-28T09:44:04;7.50;;;6.60;;
53753;SDS011;39667;52.274;20.964;2023-02-28T09:46:44;9.10;;;6.70;;
53753;SDS011;39667;52.274;20.964;2023-02-28T09:49:49;7.70;;;6.20;;
53753;SDS011;39667;52.274;20.964;2023-02-28T09:52:36;8.50;;;6.80;;
53753;SDS011;39667;52.274;20.964;2023-02-28T09:55:22;7.70;;;6.80;;
53753;SDS011;39667;52.274;20.964;2023-02-28T09:58:31;8.50;;;6.90;;
53753;SDS011;39667;52.274;20.964;2023-02-28T10:01:21;8.30;;;6.50;;
53753;SDS011;39667;52.274;20.964;2023-02-28T10:11:15;8.50;;;6.90;;
53753;SDS011;39667;52.274;20.964;2023-02-28T10:17:14;10.70;;;7.10;;
53753;SDS011;39667;52.274;20.964;2023-02-28T10:21:00;10.90;;;6.90;;
53753;SDS011;39667;52.274;20.964;2023-02-28T10:24:45;8.20;;;6.60;;
53753;SDS011;39667;52.274;20.964;2023-02-28T10:31:42;15.20;;;7.70;;
53753;SDS011;39667;52.274;20.964;2023-02-28T10:35:01;9.80;;;7.10;;
53753;SDS011;39667;52.274;20.964;2023-02-28T10:38:31;10.40;;;7.30;;
53753;SDS011;39667;52.274;20.964;2023-02-28T10:41:41;10.50;;;7.50;;
53753;SDS011;39667;52.274;20.964;2023-02-28T10:44:46;9.40;;;7.10;;
53753;SDS011;39667;52.274;20.964;2023-02-28T10:47:59;8.10;;;6.90;;
53753;SDS011;39667;52.274;20.964;2023-02-28T10:54:56;8.00;;;7.00;;
53753;SDS011;39667;52.274;20.964;2023-02-28T10:58:25;9.40;;;7.20;;
53753;SDS011;39667;52.274;20.964;2023-02-28T11:02:31;8.20;;;7.20;;
53753;SDS011;39667;52.274;20.964;2023-02-28T11:05:37;10.20;;;7.40;;
53753;SDS011;39667;52.274;20.964;2023-02-28T11:08:16;9.70;;;8.00;;
53753;SDS011;39667;52.274;20.964;2023-02-28T11:11:54;9.00;;;7.60;;
53753;SDS011;39667;52.274;20.964;2023-02-28T11:14:49;9.10;;;7.10;;
53753;SDS011;39667;52.274;20.964;2023-02-28T11:22:03;10.10;;;7.50;;
53753;SDS011;39667;52.274;20.964;2023-02-28T11:24:50;11.70;;;8.30;;
53753;SDS011;39667;52.274;20.964;2023-02-28T11:34:28;10.00;;;7.90;;
53753;SDS011;39667;52.274;20.964;2023-02-28T11:37:18;8.90;;;7.40;;
53753;SDS011;39667;52.274;20.964;2023-02-28T11:40:41;10.60;;;8.20;;
53753;SDS011;39667;52.274;20.964;2023-02-28T11:56:48;11.20;;;8.80;;
53753;SDS011;39667;52.274;20.964;2023-02-28T12:06:31;12.10;;;8.90;;
53753;SDS011;39667;52.274;20.964;2023-02-28T12:19:45;15.20;;;8.90;;
53753;SDS011;39667;52.274;20.964;2023-02-28T12:22:37;11.50;;;8.70;;
53753;SDS011;39667;52.274;20.964;2023-02-28T12:26:19;9.20;;;8.30;;
53753;SDS011;39667;52.274;20.964;2023-02-28T12:29:32;10.80;;;8.80;;
53753;SDS011;39667;52.274;20.964;2023-02-28T12:32:37;9.70;;;8.70;;
53753;SDS011;39667;52.274;20.964;2023-02-28T12:35:15;14.20;;;9.30;;
53753;SDS011;39667;52.274;20.964;2023-02-28T12:38:19;10.30;;;8.60;;
53753;SDS011;39667;52.274;20.964;2023-02-28T12:41:30;12.30;;;9.20;;
53753;SDS011;39667;52.274;20.964;2023-02-28T12:44:44;10.50;;;8.80;;
53753;SDS011;39667;52.274;20.964;2023-02-28T12:47:21;14.30;;;9.70;;
53753;SDS011;39667;52.274;20.964;2023-02-28T12:49:53;15.50;;;9.60;;
53753;SDS011;39667;52.274;20.964;2023-02-28T13:00:25;9.80;;;8.50;;
53753;SDS011;39667;52.274;20.964;2023-02-28T13:03:01;10.80;;;8.70;;
53753;SDS011;39667;52.274;20.964;2023-02-28T13:06:18;16.70;;;8.90;;
53753;SDS011;39667;52.274;20.964;2023-02-28T13:09:52;14.70;;;9.20;;
53753;SDS011;39667;52.274;20.964;2023-02-28T13:12:23;9.50;;;8.50;;
53753;SDS011;39667;52.274;20.964;2023-02-28T13:15:04;9.80;;;8.50;;
53753;SDS011;39667;52.274;20.964;2023-02-28T13:21:32;10.10;;;7.80;;
53753;SDS011;39667;52.274;20.964;2023-02-28T13:24:11;9.80;;;8.10;;
